sensor_id;sensor_type;location;lat;lon;timestamp;temperature;humidity
19654;DHT22;9975;48.046;7.804;2022-08-19T02:04:14;18.20;99.90
19654;DHT22;9975;48.046;7.804;2022-08-19T02:06:40;18.20;99.90
19654;DHT22;9975;48.046;7.804;2022-08-19T02:09:07;18.20;99.90
19654;DHT22;9975;48.046;7.804;2022-08-19T02:11:35;18.30;99.90
19654;DHT22;9975;48.046;7.804;2022-08-19T02:14:04;18.30;99.90
19654;DHT22;9975;48.046;7.804;2022-08-19T02:16:30;18.30;99.90
19654;DHT22;9975;48.046;7.804;2022-08-19T02:18:56;18.30;99.90
19654;DHT22;9975;48.046;7.804;2022-08-19T02:21:22;18.30;99.90
19654;DHT22;9975;48.046;7.804;2022-08-19T02:23:49;18.30;99.90
19654;DHT22;9975;48.046;7.804;2022-08-19T02:26:15;18.30;99.90
19654;DHT22;9975;48.046;7.804;2022-08-19T02:28:41;18.20;99.90
19654;DHT22;9975;48.046;7.804;2022-08-19T02:31:17;18.30;99.90
19654;DHT22;9975;48.046;7.804;2022-08-19T02:33:44;18.20;99.90
19654;DHT22;9975;48.046;7.804;2022-08-19T02:36:11;18.20;99.90
19654;DHT22;9975;48.046;7.804;2022-08-19T02:38:39;18.20;99.90
19654;DHT22;9975;48.046;7.804;2022-08-19T02:41:11;18.20;99.90
19654;DHT22;9975;48.046;7.804;2022-08-19T02:43:36;18.20;99.90
19654;DHT22;9975;48.046;7.804;2022-08-19T02:46:18;18.20;99.90
19654;DHT22;9975;48.046;7.804;2022-08-19T02:48:52;18.20;99.90
19654;DHT22;9975;48.046;7.804;2022-08-19T02:51:23;18.10;99.90
19654;DHT22;9975;48.046;7.804;2022-08-19T02:53:50;18.10;99.90
19654;DHT22;9975;48.046;7.804;2022-08-19T02:56:16;18.10;99.90
19654;DHT22;9975;48.046;7.804;2022-08-19T02:58:43;18.10;99.90
19654;DHT22;9975;48.046;7.804;2022-08-19T03:01:09;18.10;99.90
19654;DHT22;9975;48.046;7.804;2022-08-19T03:03:36;18.10;99.90
19654;DHT22;9975;48.046;7.804;2022-08-19T03:06:11;18.20;99.90
19654;DHT22;9975;48.046;7.804;2022-08-19T03:08:39;18.20;99.90
19654;DHT22;9975;48.046;7.804;2022-08-19T03:11:06;18.20;99.90
19654;DHT22;9975;48.046;7.804;2022-08-19T03:13:32;18.20;99.90
19654;DHT22;9975;48.046;7.804;2022-08-19T03:15:57;18.20;99.90
19654;DHT22;9975;48.046;7.804;2022-08-19T03:18:23;18.10;99.90
19654;DHT22;9975;48.046;7.804;2022-08-19T03:20:52;18.10;99.90
19654;DHT22;9975;48.046;7.804;2022-08-19T03:23:21;18.10;99.90
19654;DHT22;9975;48.046;7.804;2022-08-19T03:25:49;18.10;99.90
19654;DHT22;9975;48.046;7.804;2022-08-19T03:28:16;18.10;99.90
19654;DHT22;9975;48.046;7.804;2022-08-19T03:30:43;18.10;99.90
19654;DHT22;9975;48.046;7.804;2022-08-19T03:33:20;18.10;99.90
19654;DHT22;9975;48.046;7.804;2022-08-19T03:35:45;18.10;99.90
19654;DHT22;9975;48.046;7.804;2022-08-19T03:38:11;18.20;99.90
19654;DHT22;9975;48.046;7.804;2022-08-19T03:40:37;18.20;99.90
19654;DHT22;9975;48.046;7.804;2022-08-19T03:43:02;18.20;99.90
19654;DHT22;9975;48.046;7.804;2022-08-19T03:45:28;18.20;99.90
19654;DHT22;9975;48.046;7.804;2022-08-19T03:47:55;18.10;99.90
19654;DHT22;9975;48.046;7.804;2022-08-19T03:50:20;18.10;99.90
19654;DHT22;9975;48.046;7.804;2022-08-19T03:52:50;18.20;99.90
19654;DHT22;9975;48.046;7.804;2022-08-19T03:55:17;18.20;99.90
19654;DHT22;9975;48.046;7.804;2022-08-19T03:57:42;18.20;99.90
19654;DHT22;9975;48.046;7.804;2022-08-19T04:00:08;18.20;99.90
19654;DHT22;9975;48.046;7.804;2022-08-19T04:02:34;18.20;99.90
19654;DHT22;9975;48.046;7.804;2022-08-19T04:05:00;18.20;99.90
19654;DHT22;9975;48.046;7.804;2022-08-19T04:07:26;18.20;99.90
19654;DHT22;9975;48.046;7.804;2022-08-19T04:09:51;18.20;99.90
19654;DHT22;9975;48.046;7.804;2022-08-19T04:12:18;18.20;99.90
19654;DHT22;9975;48.046;7.804;2022-08-19T04:14:45;18.20;99.90
19654;DHT22;9975;48.046;7.804;2022-08-19T04:17:11;18.20;99.90
19654;DHT22;9975;48.046;7.804;2022-08-19T04:19:39;18.20;99.90
19654;DHT22;9975;48.046;7.804;2022-08-19T04:22:05;18.20;99.90
19654;DHT22;9975;48.046;7.804;2022-08-19T04:24:31;18.20;99.90
19654;DHT22;9975;48.046;7.804;2022-08-19T04:26:59;18.20;99.90
19654;DHT22;9975;48.046;7.804;2022-08-19T04:29:25;18.20;99.90
19654;DHT22;9975;48.046;7.804;2022-08-19T04:31:53;18.30;99.90
19654;DHT22;9975;48.046;7.804;2022-08-19T04:34:21;18.30;99.90
19654;DHT22;9975;48.046;7.804;2022-08-19T04:36:48;18.20;99.90
19654;DHT22;9975;48.046;7.804;2022-08-19T04:39:19;18.20;99.90
19654;DHT22;9975;48.046;7.804;2022-08-19T04:45:23;18.30;99.90
19654;DHT22;9975;48.046;7.804;2022-08-19T04:47:49;18.30;99.90
19654;DHT22;9975;48.046;7.804;2022-08-19T04:50:16;18.30;99.90
19654;DHT22;9975;48.046;7.804;2022-08-19T04:52:42;18.30;99.90
19654;DHT22;9975;48.046;7.804;2022-08-19T04:55:09;18.30;99.90
19654;DHT22;9975;48.046;7.804;2022-08-19T04:57:35;18.30;99.90
19654;DHT22;9975;48.046;7.804;2022-08-19T05:00:07;18.30;99.90
19654;DHT22;9975;48.046;7.804;2022-08-19T05:02:36;18.30;99.90
19654;DHT22;9975;48.046;7.804;2022-08-19T05:05:02;18.30;99.90
19654;DHT22;9975;48.046;7.804;2022-08-19T05:07:28;18.30;99.90
19654;DHT22;9975;48.046;7.804;2022-08-19T05:09:54;18.30;99.90
19654;DHT22;9975;48.046;7.804;2022-08-19T05:12:23;18.30;99.90
19654;DHT22;9975;48.046;7.804;2022-08-19T05:14:50;18.30;99.90
19654;DHT22;9975;48.046;7.804;2022-08-19T05:17:17;18.40;99.90
19654;DHT22;9975;48.046;7.804;2022-08-19T05:19:42;18.30;99.90
19654;DHT22;9975;48.046;7.804;2022-08-19T05:22:27;18.40;99.90
19654;DHT22;9975;48.046;7.804;2022-08-19T05:25:10;18.30;99.90
19654;DHT22;9975;48.046;7.804;2022-08-19T05:27:37;18.30;99.90
19654;DHT22;9975;48.046;7.804;2022-08-19T05:30:04;18.30;99.90
19654;DHT22;9975;48.046;7.804;2022-08-19T05:32:30;18.30;99.90
19654;DHT22;9975;48.046;7.804;2022-08-19T05:34:56;18.30;99.90
19654;DHT22;9975;48.046;7.804;2022-08-19T05:37:22;18.40;99.90
19654;DHT22;9975;48.046;7.804;2022-08-19T05:39:48;18.30;99.90
19654;DHT22;9975;48.046;7.804;2022-08-19T05:42:15;18.40;99.90
19654;DHT22;9975;48.046;7.804;2022-08-19T05:44:42;18.40;99.90
19654;DHT22;9975;48.046;7.804;2022-08-19T05:47:12;18.40;99.90
19654;DHT22;9975;48.046;7.804;2022-08-19T05:49:38;18.40;99.90
19654;DHT22;9975;48.046;7.804;2022-08-19T05:52:06;18.50;99.90
19654;DHT22;9975;48.046;7.804;2022-08-19T05:54:33;18.50;99.90
19654;DHT22;9975;48.046;7.804;2022-08-19T05:57:00;18.50;99.90
19654;DHT22;9975;48.046;7.804;2022-08-19T05:59:26;18.50;99.90
19654;DHT22;9975;48.046;7.804;2022-08-19T06:01:52;18.50;99.90
19654;DHT22;9975;48.046;7.804;2022-08-19T06:04:20;18.50;99.90
19654;DHT22;9975;48.046;7.804;2022-08-19T06:06:51;18.60;99.90
19654;DHT22;9975;48.046;7.804;2022-08-19T06:09:17;18.50;99.90
19654;DHT22;9975;48.046;7.804;2022-08-19T06:11:46;18.50;99.90
19654;DHT22;9975;48.046;7.804;2022-08-19T06:14:17;18.50;99.90
19654;DHT22;9975;48.046;7.804;2022-08-19T06:16:44;18.60;99.90
19654;DHT22;9975;48.046;7.804;2022-08-19T06:19:13;17.30;99.90
19654;DHT22;9975;48.046;7.804;2022-08-19T06:21:42;18.60;99.90
19654;DHT22;9975;48.046;7.804;2022-08-19T06:24:11;18.60;99.90
19654;DHT22;9975;48.046;7.804;2022-08-19T06:26:40;18.60;99.90
19654;DHT22;9975;48.046;7.804;2022-08-19T06:29:07;18.70;99.90
19654;DHT22;9975;48.046;7.804;2022-08-19T06:31:34;18.60;99.90
19654;DHT22;9975;48.046;7.804;2022-08-19T06:34:03;18.60;99.90
19654;DHT22;9975;48.046;7.804;2022-08-19T06:36:33;18.60;99.90
19654;DHT22;9975;48.046;7.804;2022-08-19T06:39:06;18.70;99.90
19654;DHT22;9975;48.046;7.804;2022-08-19T06:41:36;18.70;99.90
19654;DHT22;9975;48.046;7.804;2022-08-19T06:44:02;18.70;99.90
19654;DHT22;9975;48.046;7.804;2022-08-19T06:46:28;18.80;99.90
19654;DHT22;9975;48.046;7.804;2022-08-19T06:48:54;18.80;99.90
19654;DHT22;9975;48.046;7.804;2022-08-19T06:51:21;18.80;99.90
19654;DHT22;9975;48.046;7.804;2022-08-19T06:53:48;18.90;99.90
19654;DHT22;9975;48.046;7.804;2022-08-19T06:56:16;18.80;99.90
19654;DHT22;9975;48.046;7.804;2022-08-19T06:58:42;18.90;99.90
19654;DHT22;9975;48.046;7.804;2022-08-19T07:01:09;18.90;99.90
19654;DHT22;9975;48.046;7.804;2022-08-19T07:03:36;18.90;99.90
19654;DHT22;9975;48.046;7.804;2022-08-19T07:06:07;18.90;99.90
19654;DHT22;9975;48.046;7.804;2022-08-19T07:08:33;19.00;99.90
19654;DHT22;9975;48.046;7.804;2022-08-19T07:10:59;19.00;99.90
19654;DHT22;9975;48.046;7.804;2022-08-19T07:13:25;19.00;99.90
19654;DHT22;9975;48.046;7.804;2022-08-19T07:15:51;19.10;99.90
19654;DHT22;9975;48.046;7.804;2022-08-19T07:18:18;19.10;99.90
19654;DHT22;9975;48.046;7.804;2022-08-19T07:20:45;19.10;99.90
19654;DHT22;9975;48.046;7.804;2022-08-19T07:23:10;19.10;99.90
19654;DHT22;9975;48.046;7.804;2022-08-19T07:25:37;19.20;99.90
19654;DHT22;9975;48.046;7.804;2022-08-19T07:28:03;19.10;99.90
19654;DHT22;9975;48.046;7.804;2022-08-19T07:30:29;19.20;99.90
19654;DHT22;9975;48.046;7.804;2022-08-19T07:32:54;19.20;99.90
19654;DHT22;9975;48.046;7.804;2022-08-19T07:35:21;19.30;99.90
19654;DHT22;9975;48.046;7.804;2022-08-19T07:40:13;19.30;99.90
19654;DHT22;9975;48.046;7.804;2022-08-19T07:42:39;19.40;99.90
19654;DHT22;9975;48.046;7.804;2022-08-19T07:45:06;19.50;99.90
19654;DHT22;9975;48.046;7.804;2022-08-19T07:47:32;19.60;99.90
19654;DHT22;9975;48.046;7.804;2022-08-19T07:49:58;19.60;99.90
19654;DHT22;9975;48.046;7.804;2022-08-19T07:52:23;19.70;99.90
19654;DHT22;9975;48.046;7.804;2022-08-19T07:54:49;19.70;99.90
19654;DHT22;9975;48.046;7.804;2022-08-19T07:57:16;19.80;99.90
19654;DHT22;9975;48.046;7.804;2022-08-19T07:59:42;19.80;99.90
19654;DHT22;9975;48.046;7.804;2022-08-19T08:02:08;19.90;99.90
19654;DHT22;9975;48.046;7.804;2022-08-19T08:04:34;20.00;99.90
19654;DHT22;9975;48.046;7.804;2022-08-19T08:07:20;19.90;99.90
19654;DHT22;9975;48.046;7.804;2022-08-19T08:10:06;19.90;99.90
19654;DHT22;9975;48.046;7.804;2022-08-19T08:12:36;20.00;99.90
19654;DHT22;9975;48.046;7.804;2022-08-19T08:15:11;19.90;99.90
19654;DHT22;9975;48.046;7.804;2022-08-19T08:17:37;20.00;99.90
19654;DHT22;9975;48.046;7.804;2022-08-19T08:20:05;20.00;99.90
19654;DHT22;9975;48.046;7.804;2022-08-19T08:22:34;20.10;99.90
19654;DHT22;9975;48.046;7.804;2022-08-19T08:25:21;20.20;99.90
19654;DHT22;9975;48.046;7.804;2022-08-19T08:27:48;20.10;99.90
19654;DHT22;9975;48.046;7.804;2022-08-19T08:30:23;20.00;99.90
19654;DHT22;9975;48.046;7.804;2022-08-19T08:32:50;20.10;99.90
19654;DHT22;9975;48.046;7.804;2022-08-19T08:35:20;20.10;99.90
19654;DHT22;9975;48.046;7.804;2022-08-19T08:37:47;20.30;99.90
19654;DHT22;9975;48.046;7.804;2022-08-19T08:43:21;20.40;99.90
19654;DHT22;9975;48.046;7.804;2022-08-19T08:45:59;20.50;99.90
19654;DHT22;9975;48.046;7.804;2022-08-19T08:48:46;20.60;99.90
19654;DHT22;9975;48.046;7.804;2022-08-19T08:51:20;20.50;99.90
19654;DHT22;9975;48.046;7.804;2022-08-19T08:53:50;20.40;99.90
19654;DHT22;9975;48.046;7.804;2022-08-19T08:56:17;20.50;99.90
19654;DHT22;9975;48.046;7.804;2022-08-19T09:01:17;20.70;99.90
19654;DHT22;9975;48.046;7.804;2022-08-19T09:03:44;20.80;99.90
19654;DHT22;9975;48.046;7.804;2022-08-19T09:09:01;20.70;99.90
19654;DHT22;9975;48.046;7.804;2022-08-19T09:16:59;20.80;99.90
19654;DHT22;9975;48.046;7.804;2022-08-19T09:19:29;20.80;99.90
19654;DHT22;9975;48.046;7.804;2022-08-19T09:22:00;20.90;99.90
19654;DHT22;9975;48.046;7.804;2022-08-19T09:24:26;21.10;99.90
19654;DHT22;9975;48.046;7.804;2022-08-19T09:26:52;21.20;99.90
19654;DHT22;9975;48.046;7.804;2022-08-19T09:29:18;21.20;99.90
19654;DHT22;9975;48.046;7.804;2022-08-19T09:31:43;21.30;99.90
19654;DHT22;9975;48.046;7.804;2022-08-19T09:34:09;21.30;99.90
19654;DHT22;9975;48.046;7.804;2022-08-19T09:36:34;21.30;99.90
19654;DHT22;9975;48.046;7.804;2022-08-19T09:39:05;21.20;99.90
19654;DHT22;9975;48.046;7.804;2022-08-19T09:41:34;21.20;99.90
19654;DHT22;9975;48.046;7.804;2022-08-19T09:44:06;21.30;99.90
19654;DHT22;9975;48.046;7.804;2022-08-19T09:46:32;21.40;99.90
19654;DHT22;9975;48.046;7.804;2022-08-19T09:48:59;21.50;99.90
19654;DHT22;9975;48.046;7.804;2022-08-19T09:51:27;21.50;99.90
19654;DHT22;9975;48.046;7.804;2022-08-19T09:53:58;21.60;99.90
19654;DHT22;9975;48.046;7.804;2022-08-19T09:56:24;21.60;99.90
19654;DHT22;9975;48.046;7.804;2022-08-19T09:58:49;21.60;99.90
19654;DHT22;9975;48.046;7.804;2022-08-19T10:01:21;21.80;99.90
19654;DHT22;9975;48.046;7.804;2022-08-19T10:03:53;21.80;99.90
19654;DHT22;9975;48.046;7.804;2022-08-19T10:06:21;21.80;99.90
19654;DHT22;9975;48.046;7.804;2022-08-19T10:08:48;21.90;99.90
19654;DHT22;9975;48.046;7.804;2022-08-19T10:11:14;22.00;99.90
19654;DHT22;9975;48.046;7.804;2022-08-19T10:13:44;22.10;99.90
19654;DHT22;9975;48.046;7.804;2022-08-19T10:16:13;22.10;99.90
19654;DHT22;9975;48.046;7.804;2022-08-19T10:18:39;22.10;99.90
19654;DHT22;9975;48.046;7.804;2022-08-19T10:21:20;22.10;99.90
19654;DHT22;9975;48.046;7.804;2022-08-19T10:23:55;22.20;99.90
19654;DHT22;9975;48.046;7.804;2022-08-19T10:26:28;22.20;99.90
19654;DHT22;9975;48.046;7.804;2022-08-19T10:28:58;22.20;99.90
19654;DHT22;9975;48.046;7.804;2022-08-19T10:31:27;22.20;99.90
19654;DHT22;9975;48.046;7.804;2022-08-19T10:33:57;22.30;99.90
19654;DHT22;9975;48.046;7.804;2022-08-19T10:36:30;22.30;99.90
19654;DHT22;9975;48.046;7.804;2022-08-19T10:38:59;22.40;99.90
19654;DHT22;9975;48.046;7.804;2022-08-19T10:41:32;22.50;99.90
19654;DHT22;9975;48.046;7.804;2022-08-19T10:44:00;22.40;99.90
19654;DHT22;9975;48.046;7.804;2022-08-19T10:46:27;22.60;99.90
19654;DHT22;9975;48.046;7.804;2022-08-19T10:48:53;22.70;99.90
19654;DHT22;9975;48.046;7.804;2022-08-19T10:51:20;22.80;99.90
19654;DHT22;9975;48.046;7.804;2022-08-19T10:54:05;22.80;99.90
19654;DHT22;9975;48.046;7.804;2022-08-19T10:56:33;22.80;99.90
19654;DHT22;9975;48.046;7.804;2022-08-19T10:59:28;22.90;99.90
19654;DHT22;9975;48.046;7.804;2022-08-19T11:01:59;23.00;99.90
19654;DHT22;9975;48.046;7.804;2022-08-19T11:04:25;23.20;99.90
19654;DHT22;9975;48.046;7.804;2022-08-19T11:06:51;23.20;99.90
19654;DHT22;9975;48.046;7.804;2022-08-19T11:09:22;23.30;99.90
19654;DHT22;9975;48.046;7.804;2022-08-19T11:11:52;23.30;99.90
19654;DHT22;9975;48.046;7.804;2022-08-19T11:14:20;23.30;99.90
19654;DHT22;9975;48.046;7.804;2022-08-19T11:16:48;23.40;99.90
19654;DHT22;9975;48.046;7.804;2022-08-19T11:19:15;23.60;99.90
19654;DHT22;9975;48.046;7.804;2022-08-19T11:21:46;23.70;99.90
19654;DHT22;9975;48.046;7.804;2022-08-19T11:24:15;23.90;99.90
19654;DHT22;9975;48.046;7.804;2022-08-19T11:26:42;24.00;99.90
19654;DHT22;9975;48.046;7.804;2022-08-19T11:29:10;24.00;99.90
19654;DHT22;9975;48.046;7.804;2022-08-19T11:31:41;24.10;99.90
19654;DHT22;9975;48.046;7.804;2022-08-19T11:34:10;24.20;99.90
19654;DHT22;9975;48.046;7.804;2022-08-19T11:36:41;23.90;99.90
19654;DHT22;9975;48.046;7.804;2022-08-19T11:39:09;23.90;99.90
19654;DHT22;9975;48.046;7.804;2022-08-19T11:41:35;23.80;99.90
19654;DHT22;9975;48.046;7.804;2022-08-19T11:44:01;24.10;99.90
19654;DHT22;9975;48.046;7.804;2022-08-19T11:46:28;24.10;99.90
19654;DHT22;9975;48.046;7.804;2022-08-19T11:48:56;24.30;99.90
19654;DHT22;9975;48.046;7.804;2022-08-19T11:51:25;24.60;99.90
19654;DHT22;9975;48.046;7.804;2022-08-19T11:53:55;24.80;99.90
19654;DHT22;9975;48.046;7.804;2022-08-19T11:56:22;24.90;99.90
19654;DHT22;9975;48.046;7.804;2022-08-19T11:58:48;24.90;99.90
19654;DHT22;9975;48.046;7.804;2022-08-19T12:01:17;24.90;99.90
19654;DHT22;9975;48.046;7.804;2022-08-19T12:03:47;25.00;99.90
19654;DHT22;9975;48.046;7.804;2022-08-19T12:06:17;25.00;99.90
19654;DHT22;9975;48.046;7.804;2022-08-19T12:08:45;25.00;99.90
19654;DHT22;9975;48.046;7.804;2022-08-19T12:11:13;25.00;99.90
19654;DHT22;9975;48.046;7.804;2022-08-19T12:13:41;25.10;99.90
19654;DHT22;9975;48.046;7.804;2022-08-19T12:16:16;25.10;99.90
19654;DHT22;9975;48.046;7.804;2022-08-19T12:18:43;25.20;99.90
19654;DHT22;9975;48.046;7.804;2022-08-19T12:21:13;25.30;99.90
19654;DHT22;9975;48.046;7.804;2022-08-19T12:23:40;25.30;99.90
19654;DHT22;9975;48.046;7.804;2022-08-19T12:26:05;25.20;99.90
19654;DHT22;9975;48.046;7.804;2022-08-19T12:28:31;25.00;99.90
19654;DHT22;9975;48.046;7.804;2022-08-19T12:31:00;25.30;99.90
19654;DHT22;9975;48.046;7.804;2022-08-19T12:33:26;25.40;99.90
19654;DHT22;9975;48.046;7.804;2022-08-19T12:35:53;25.50;99.90
19654;DHT22;9975;48.046;7.804;2022-08-19T12:38:19;25.50;99.90
19654;DHT22;9975;48.046;7.804;2022-08-19T12:40:46;25.40;99.30
19654;DHT22;9975;48.046;7.804;2022-08-19T12:43:13;25.40;98.70
19654;DHT22;9975;48.046;7.804;2022-08-19T12:45:41;25.40;98.90
19654;DHT22;9975;48.046;7.804;2022-08-19T12:48:07;25.50;98.30
19654;DHT22;9975;48.046;7.804;2022-08-19T12:50:33;25.60;98.10
19654;DHT22;9975;48.046;7.804;2022-08-19T12:52:59;25.80;97.90
19654;DHT22;9975;48.046;7.804;2022-08-19T12:55:24;26.00;97.40
19654;DHT22;9975;48.046;7.804;2022-08-19T12:57:50;26.20;97.60
19654;DHT22;9975;48.046;7.804;2022-08-19T13:00:19;26.10;96.60
19654;DHT22;9975;48.046;7.804;2022-08-19T13:02:47;25.90;97.30
19654;DHT22;9975;48.046;7.804;2022-08-19T13:05:17;26.10;96.90
19654;DHT22;9975;48.046;7.804;2022-08-19T13:07:45;26.20;96.40
19654;DHT22;9975;48.046;7.804;2022-08-19T13:10:14;26.10;96.00
19654;DHT22;9975;48.046;7.804;2022-08-19T13:12:41;26.30;96.00
19654;DHT22;9975;48.046;7.804;2022-08-19T13:15:08;26.30;95.40
19654;DHT22;9975;48.046;7.804;2022-08-19T13:17:34;26.50;95.30
19654;DHT22;9975;48.046;7.804;2022-08-19T13:20:00;26.30;95.50
19654;DHT22;9975;48.046;7.804;2022-08-19T13:22:26;26.10;95.30
19654;DHT22;9975;48.046;7.804;2022-08-19T13:24:52;26.20;95.30
19654;DHT22;9975;48.046;7.804;2022-08-19T13:27:18;26.10;94.80
19654;DHT22;9975;48.046;7.804;2022-08-19T13:29:44;26.40;94.90
19654;DHT22;9975;48.046;7.804;2022-08-19T13:32:29;26.50;94.70
19654;DHT22;9975;48.046;7.804;2022-08-19T13:35:13;26.40;93.10
19654;DHT22;9975;48.046;7.804;2022-08-19T13:37:39;26.70;92.80
19654;DHT22;9975;48.046;7.804;2022-08-19T13:40:15;26.90;91.50
19654;DHT22;9975;48.046;7.804;2022-08-19T13:42:43;27.00;91.50
19654;DHT22;9975;48.046;7.804;2022-08-19T13:45:09;27.50;91.20
19654;DHT22;9975;48.046;7.804;2022-08-19T13:47:35;27.70;90.70
19654;DHT22;9975;48.046;7.804;2022-08-19T13:50:06;27.70;87.00
19654;DHT22;9975;48.046;7.804;2022-08-19T13:52:32;27.70;86.00
19654;DHT22;9975;48.046;7.804;2022-08-19T13:54:57;28.00;85.30
19654;DHT22;9975;48.046;7.804;2022-08-19T13:57:23;28.20;85.20
19654;DHT22;9975;48.046;7.804;2022-08-19T13:59:49;28.10;81.20
19654;DHT22;9975;48.046;7.804;2022-08-19T14:02:15;28.40;81.40
19654;DHT22;9975;48.046;7.804;2022-08-19T14:04:41;28.30;81.30
19654;DHT22;9975;48.046;7.804;2022-08-19T14:07:07;28.30;79.20
19654;DHT22;9975;48.046;7.804;2022-08-19T14:09:32;28.00;80.20
19654;DHT22;9975;48.046;7.804;2022-08-19T14:11:58;27.80;80.70
19654;DHT22;9975;48.046;7.804;2022-08-19T14:14:23;27.50;80.10
19654;DHT22;9975;48.046;7.804;2022-08-19T14:16:49;27.20;81.50
19654;DHT22;9975;48.046;7.804;2022-08-19T14:19:15;26.70;82.50
19654;DHT22;9975;48.046;7.804;2022-08-19T14:21:41;26.40;85.20
19654;DHT22;9975;48.046;7.804;2022-08-19T14:24:07;26.20;86.20
19654;DHT22;9975;48.046;7.804;2022-08-19T14:26:33;26.00;86.10
19654;DHT22;9975;48.046;7.804;2022-08-19T14:28:59;26.00;87.50
19654;DHT22;9975;48.046;7.804;2022-08-19T14:31:26;25.60;90.90
19654;DHT22;9975;48.046;7.804;2022-08-19T14:33:52;25.10;94.50
19654;DHT22;9975;48.046;7.804;2022-08-19T14:36:18;25.00;96.10
19654;DHT22;9975;48.046;7.804;2022-08-19T14:38:47;24.70;96.80
19654;DHT22;9975;48.046;7.804;2022-08-19T14:41:20;24.40;96.60
19654;DHT22;9975;48.046;7.804;2022-08-19T14:43:50;24.10;98.80
19654;DHT22;9975;48.046;7.804;2022-08-19T14:46:19;24.30;99.90
19654;DHT22;9975;48.046;7.804;2022-08-19T14:48:46;24.30;99.90
19654;DHT22;9975;48.046;7.804;2022-08-19T14:51:12;24.10;99.90
19654;DHT22;9975;48.046;7.804;2022-08-19T14:53:39;24.20;99.90
19654;DHT22;9975;48.046;7.804;2022-08-19T14:56:14;24.20;99.90
19654;DHT22;9975;48.046;7.804;2022-08-19T14:58:41;24.10;99.90
19654;DHT22;9975;48.046;7.804;2022-08-19T15:01:08;23.90;99.90
19654;DHT22;9975;48.046;7.804;2022-08-19T15:03:34;24.00;99.90
19654;DHT22;9975;48.046;7.804;2022-08-19T15:06:01;23.90;99.90
19654;DHT22;9975;48.046;7.804;2022-08-19T15:08:29;23.90;99.90
19654;DHT22;9975;48.046;7.804;2022-08-19T15:10:57;23.80;99.90
19654;DHT22;9975;48.046;7.804;2022-08-19T15:13:30;23.80;99.90
19654;DHT22;9975;48.046;7.804;2022-08-19T15:15:56;23.70;99.90
19654;DHT22;9975;48.046;7.804;2022-08-19T15:18:22;23.70;99.90
19654;DHT22;9975;48.046;7.804;2022-08-19T15:20:48;23.60;99.90
19654;DHT22;9975;48.046;7.804;2022-08-19T15:23:15;23.40;99.90
19654;DHT22;9975;48.046;7.804;2022-08-19T15:25:41;23.40;99.90
19654;DHT22;9975;48.046;7.804;2022-08-19T15:28:07;23.50;99.90
19654;DHT22;9975;48.046;7.804;2022-08-19T15:30:34;23.50;99.90
19654;DHT22;9975;48.046;7.804;2022-08-19T15:33:00;23.50;99.90
19654;DHT22;9975;48.046;7.804;2022-08-19T15:35:27;23.70;99.90
19654;DHT22;9975;48.046;7.804;2022-08-19T15:37:54;23.90;99.90
19654;DHT22;9975;48.046;7.804;2022-08-19T15:40:20;23.80;99.90
19654;DHT22;9975;48.046;7.804;2022-08-19T15:42:46;23.80;99.90
19654;DHT22;9975;48.046;7.804;2022-08-19T15:45:15;23.90;99.90
19654;DHT22;9975;48.046;7.804;2022-08-19T15:47:40;24.00;99.90
19654;DHT22;9975;48.046;7.804;2022-08-19T15:50:08;24.00;99.90
19654;DHT22;9975;48.046;7.804;2022-08-19T15:52:34;24.10;99.90
19654;DHT22;9975;48.046;7.804;2022-08-19T15:55:00;24.10;99.90
19654;DHT22;9975;48.046;7.804;2022-08-19T15:57:27;24.20;99.90
19654;DHT22;9975;48.046;7.804;2022-08-19T15:59:53;24.10;99.90
19654;DHT22;9975;48.046;7.804;2022-08-19T16:02:37;23.90;99.90
19654;DHT22;9975;48.046;7.804;2022-08-19T16:05:24;24.00;99.90
19654;DHT22;9975;48.046;7.804;2022-08-19T16:08:08;23.80;99.90
19654;DHT22;9975;48.046;7.804;2022-08-19T16:10:38;23.90;99.90
19654;DHT22;9975;48.046;7.804;2022-08-19T16:13:04;23.90;99.90
19654;DHT22;9975;48.046;7.804;2022-08-19T16:15:31;24.00;99.90
19654;DHT22;9975;48.046;7.804;2022-08-19T16:17:59;23.90;99.90
19654;DHT22;9975;48.046;7.804;2022-08-19T16:20:28;23.90;99.90
19654;DHT22;9975;48.046;7.804;2022-08-19T16:22:56;23.90;99.90
19654;DHT22;9975;48.046;7.804;2022-08-19T16:25:23;23.90;99.90
19654;DHT22;9975;48.046;7.804;2022-08-19T16:27:52;23.90;99.90
19654;DHT22;9975;48.046;7.804;2022-08-19T16:30:19;24.00;99.90
19654;DHT22;9975;48.046;7.804;2022-08-19T16:32:45;24.00;99.90
19654;DHT22;9975;48.046;7.804;2022-08-19T16:35:11;23.90;99.90
19654;DHT22;9975;48.046;7.804;2022-08-19T16:37:37;24.00;99.90
19654;DHT22;9975;48.046;7.804;2022-08-19T16:40:04;23.90;99.90
19654;DHT22;9975;48.046;7.804;2022-08-19T16:42:33;23.80;99.90
19654;DHT22;9975;48.046;7.804;2022-08-19T16:45:00;23.90;99.90
19654;DHT22;9975;48.046;7.804;2022-08-19T16:47:25;23.80;99.90
19654;DHT22;9975;48.046;7.804;2022-08-19T16:49:51;23.80;99.90
19654;DHT22;9975;48.046;7.804;2022-08-19T16:52:18;23.90;99.90
19654;DHT22;9975;48.046;7.804;2022-08-19T16:54:44;24.10;99.90
19654;DHT22;9975;48.046;7.804;2022-08-19T16:57:09;23.90;99.90
19654;DHT22;9975;48.046;7.804;2022-08-19T16:59:35;23.90;99.90
19654;DHT22;9975;48.046;7.804;2022-08-19T17:02:01;24.00;99.90
19654;DHT22;9975;48.046;7.804;2022-08-19T17:04:27;23.90;99.90
19654;DHT22;9975;48.046;7.804;2022-08-19T17:06:53;23.90;99.90
19654;DHT22;9975;48.046;7.804;2022-08-19T17:09:19;23.90;99.90
19654;DHT22;9975;48.046;7.804;2022-08-19T17:11:44;23.90;99.90
19654;DHT22;9975;48.046;7.804;2022-08-19T17:14:10;23.90;99.90
19654;DHT22;9975;48.046;7.804;2022-08-19T17:16:36;23.90;99.90
19654;DHT22;9975;48.046;7.804;2022-08-19T17:19:04;23.80;99.90
19654;DHT22;9975;48.046;7.804;2022-08-19T17:21:33;23.80;99.90
19654;DHT22;9975;48.046;7.804;2022-08-19T17:24:01;23.70;99.90
19654;DHT22;9975;48.046;7.804;2022-08-19T17:26:27;23.70;99.90
19654;DHT22;9975;48.046;7.804;2022-08-19T17:28:54;23.70;99.90
19654;DHT22;9975;48.046;7.804;2022-08-19T17:31:22;23.70;99.90
19654;DHT22;9975;48.046;7.804;2022-08-19T17:33:49;23.70;99.90
19654;DHT22;9975;48.046;7.804;2022-08-19T17:36:16;23.50;99.90
19654;DHT22;9975;48.046;7.804;2022-08-19T17:38:42;23.40;99.90
19654;DHT22;9975;48.046;7.804;2022-08-19T17:41:12;23.30;99.90
19654;DHT22;9975;48.046;7.804;2022-08-19T17:43:38;23.30;99.90
19654;DHT22;9975;48.046;7.804;2022-08-19T17:46:04;23.30;99.90
19654;DHT22;9975;48.046;7.804;2022-08-19T17:48:32;23.20;99.90
19654;DHT22;9975;48.046;7.804;2022-08-19T17:51:24;23.20;99.90
19654;DHT22;9975;48.046;7.804;2022-08-19T17:53:53;23.10;99.90
19654;DHT22;9975;48.046;7.804;2022-08-19T17:56:19;23.10;99.90
19654;DHT22;9975;48.046;7.804;2022-08-19T17:58:45;23.10;99.90
19654;DHT22;9975;48.046;7.804;2022-08-19T18:01:13;23.00;99.90
19654;DHT22;9975;48.046;7.804;2022-08-19T18:03:40;22.90;99.90
19654;DHT22;9975;48.046;7.804;2022-08-19T18:06:06;22.90;99.90
19654;DHT22;9975;48.046;7.804;2022-08-19T18:08:33;22.90;99.90
19654;DHT22;9975;48.046;7.804;2022-08-19T18:11:02;22.90;99.90
19654;DHT22;9975;48.046;7.804;2022-08-19T18:13:28;22.90;99.90